Aeroporto :
LOGIN :

Iscrizione | Disclaimer

   EN    FR    IT 

 










Sommario :    VFR   VFR Marginale   IFR   IFR Intensivo   IFR Molto Intensivo
Visibilità : 
Base nubi : 
>= 8 km
>= 3000ft
5 / 8 km
1000 / 3000 ft
1500m / 5 km
500 / 1000 ft
800 / 1500m
200 / 500 ft
< 800m
< 200 ft
Simboli :   Temporali  Nebbia  Neve Forte  Precipitazioni Forti  Vento > 20 kt
SIGMETs :   Varie  Temporali  Ghiacco  Turbolenza  Onda orograficha  Ceneri Vulcaniche






- Altitudine del aeroporto : 56 ft
- Codice IATA : BZR


LFMU - Beziers / Vias

ULTIMO METAR :
  • 171830Z AUTO 31007KT 270V340 CAVOK 11/06 Q1028 NOSIG

METARs OBSOLETI :
  • 171800Z AUTO 32011KT CAVOK 12/06 Q1028 NOSIG
  • 171730Z AUTO 33017KT 9999 FEW041 OVC072 12/06 Q1027 NOSIG
  • 171700Z AUTO 33010KT 9999 SCT040 OVC068 13/08 Q1027 NOSIG
  • 171630Z AUTO 32011KT 9999 FEW049 OVC062 13/08 Q1026 NOSIG
  • 171600Z AUTO 34011KT 9999 OVC044 14/09 Q1025 NOSIG

TAF TAF LFMU
Valido dal 17 a 15 ore il 18 a 15 ore UTC


171400Z 1715/1815 VRB05KT 9999 SCT015 BKN040
BECMG 1715/1717 33012KT CAVOK
ATIS : +33 4 67 90 88 88



MetMap, La meteo Aeronautica in un colpo d'occhio ! - Copyright ORBIFLY Dicembre 2007 - Disclaimer

ORBIFLY MET'MAP TEAM :

Programmazione e sviluppo : Alexandra Zaïnal
Concezione : Baudouin d'Aumeries
Aiuto per la programmazione : Marc-Olivier Méhu
Supporto tecnico e logistico : Manuel Goepfert
Aiuto per la traduzione : Arnaldo La Scala

Contatto : metmap@orbifly.com




FONTI E CREDITI :

   NOAA